createdAt,value
2023-04-26T00:00:36.945Z,90.40
2023-04-26T00:03:04.899Z,90.30
2023-04-26T00:05:31.928Z,90.30
2023-04-26T00:07:59.543Z,90.20
2023-04-26T00:10:26.845Z,90.30
2023-04-26T00:12:53.806Z,90.40
2023-04-26T00:15:20.787Z,90.40
2023-04-26T00:17:48.316Z,90.30
2023-04-26T00:20:15.776Z,90.30
2023-04-26T00:22:43.045Z,90.30
2023-04-26T00:25:10.453Z,90.40
2023-04-26T00:27:37.472Z,90.50
2023-04-26T00:30:04.870Z,90.60
2023-04-26T00:32:32.084Z,90.60
2023-04-26T00:34:59.112Z,90.70
2023-04-26T00:37:26.142Z,90.70
2023-04-26T00:39:53.193Z,90.80
2023-04-26T00:42:20.208Z,90.80
2023-04-26T00:44:47.105Z,90.90
2023-04-26T00:47:14.204Z,90.90
2023-04-26T00:49:41.455Z,90.90
2023-04-26T00:52:08.482Z,90.90
2023-04-26T00:54:35.746Z,90.80
2023-04-26T00:57:02.966Z,90.70
2023-04-26T00:59:29.861Z,90.80
2023-04-26T01:01:59.287Z,90.90
2023-04-26T01:04:27.417Z,91.00
2023-04-26T01:06:56.450Z,91.10
2023-04-26T01:09:23.350Z,91.40
2023-04-26T01:11:52.591Z,91.10
2023-04-26T01:14:19.636Z,91.10
2023-04-26T01:16:46.972Z,90.80
2023-04-26T01:19:15.147Z,90.80
2023-04-26T01:21:42.896Z,91.00
2023-04-26T01:24:14.160Z,91.20
2023-04-26T01:26:46.511Z,91.40
2023-04-26T01:29:15.775Z,91.50
2023-04-26T01:31:43.062Z,91.60
2023-04-26T01:34:10.421Z,91.70
2023-04-26T01:36:38.108Z,91.70
2023-04-26T01:39:05.214Z,91.70
2023-04-26T01:41:33.674Z,91.70
2023-04-26T01:44:01.450Z,91.80
2023-04-26T01:46:28.609Z,91.80
2023-04-26T01:48:55.754Z,91.80
2023-04-26T01:51:23.541Z,91.70
2023-04-26T01:53:50.579Z,91.50
2023-04-26T01:56:18.321Z,91.40
2023-04-26T01:58:45.688Z,91.40
2023-04-26T02:01:12.633Z,91.40
2023-04-26T02:03:39.788Z,91.40
2023-04-26T02:06:07.652Z,91.40
2023-04-26T02:08:34.617Z,91.40
2023-04-26T02:11:01.451Z,91.50
2023-04-26T02:13:28.455Z,91.60
2023-04-26T02:15:55.766Z,91.60
2023-04-26T02:18:22.781Z,91.70
2023-04-26T02:20:50.819Z,91.80
2023-04-26T02:23:17.817Z,92.00
2023-04-26T02:25:48.955Z,91.80
2023-04-26T02:28:17.500Z,91.80
2023-04-26T02:30:44.913Z,91.80
2023-04-26T02:33:11.933Z,91.70
2023-04-26T02:35:39.476Z,91.60
2023-04-26T02:38:07.823Z,91.70
2023-04-26T02:40:35.893Z,91.80
2023-04-26T02:43:03.571Z,91.90
2023-04-26T02:45:30.601Z,92.00
2023-04-26T02:47:57.637Z,92.00
2023-04-26T02:50:24.617Z,92.00
2023-04-26T02:52:51.889Z,92.00
2023-04-26T02:55:18.969Z,91.90
2023-04-26T02:57:46.122Z,91.90
2023-04-26T03:00:16.310Z,92.00
2023-04-26T03:02:43.464Z,92.00
2023-04-26T03:05:10.826Z,92.00
2023-04-26T03:07:37.921Z,91.90
2023-04-26T03:10:06.235Z,91.90
2023-04-26T03:12:34.201Z,91.90
2023-04-26T03:15:03.946Z,91.90
2023-04-26T03:17:31.619Z,91.90
2023-04-26T03:19:59.995Z,91.90
2023-04-26T03:22:28.873Z,91.90
2023-04-26T03:24:55.802Z,92.00
2023-04-26T03:27:23.288Z,92.00
2023-04-26T03:29:50.138Z,92.10
2023-04-26T03:32:17.114Z,92.10
2023-04-26T03:34:44.161Z,92.00
2023-04-26T03:37:11.193Z,92.00
2023-04-26T03:39:38.933Z,92.00
2023-04-26T03:42:06.197Z,91.90
2023-04-26T03:44:34.691Z,91.90
2023-04-26T03:47:01.679Z,91.90
2023-04-26T03:49:29.231Z,91.90
2023-04-26T03:51:56.786Z,91.80
2023-04-26T03:54:23.668Z,91.70
2023-04-26T03:56:50.748Z,91.80
2023-04-26T03:59:18.793Z,92.10
2023-04-26T04:01:45.922Z,91.80
2023-04-26T04:04:13.275Z,91.80
2023-04-26T04:06:40.715Z,91.80
2023-04-26T04:09:07.714Z,91.80
2023-04-26T04:11:34.901Z,91.90
2023-04-26T04:14:02.917Z,92.00
2023-04-26T04:16:29.983Z,92.00
2023-04-26T04:18:57.334Z,92.00
2023-04-26T04:21:24.704Z,92.10
2023-04-26T04:23:51.962Z,92.10
2023-04-26T04:26:19.195Z,92.10
2023-04-26T04:28:47.213Z,92.20
2023-04-26T04:31:14.677Z,92.20
2023-04-26T04:33:41.933Z,92.30
2023-04-26T04:36:10.280Z,92.30
2023-04-26T04:38:37.385Z,92.40
2023-04-26T04:41:05.698Z,92.40
2023-04-26T04:43:34.559Z,92.50
2023-04-26T04:46:01.673Z,92.40
2023-04-26T04:48:28.848Z,92.30
2023-04-26T04:50:56.184Z,92.30
2023-04-26T04:53:23.729Z,92.30
2023-04-26T04:55:51.132Z,92.30
2023-04-26T04:58:18.501Z,92.40
2023-04-26T05:00:46.898Z,92.40
2023-04-26T05:03:25.394Z,92.50
2023-04-26T05:05:52.585Z,92.50
2023-04-26T05:08:19.699Z,92.50
2023-04-26T05:10:47.156Z,92.50
2023-04-26T05:13:14.105Z,92.60
2023-04-26T05:15:41.082Z,92.60
2023-04-26T05:18:08.507Z,92.70
2023-04-26T05:20:35.450Z,92.70
2023-04-26T05:23:02.836Z,92.70
2023-04-26T05:25:29.865Z,92.80
2023-04-26T05:28:04.707Z,92.80
2023-04-26T05:30:38.842Z,92.80
2023-04-26T05:33:26.265Z,92.80
2023-04-26T05:36:07.260Z,92.80
2023-04-26T05:38:34.200Z,92.80
2023-04-26T05:41:01.081Z,92.80
2023-04-26T05:43:28.380Z,92.60
2023-04-26T05:45:57.097Z,92.50
2023-04-26T05:48:25.930Z,92.30
2023-04-26T05:50:53.331Z,92.10
2023-04-26T05:53:20.638Z,92.00
2023-04-26T05:55:47.864Z,91.80
2023-04-26T05:58:15.833Z,91.70
2023-04-26T06:00:43.037Z,91.60
2023-04-26T06:03:10.992Z,91.50
2023-04-26T06:05:38.755Z,91.30
2023-04-26T06:08:06.283Z,91.20
2023-04-26T06:10:33.657Z,91.00
2023-04-26T06:13:00.957Z,90.80
2023-04-26T06:15:31.762Z,90.60
2023-04-26T06:17:59.987Z,90.40
2023-04-26T06:20:28.064Z,90.20
2023-04-26T06:22:55.131Z,90.20
2023-04-26T06:25:22.926Z,90.00
2023-04-26T06:27:50.049Z,89.70
2023-04-26T06:30:17.106Z,89.50
2023-04-26T06:32:47.240Z,89.30
2023-04-26T06:35:14.869Z,89.20
2023-04-26T06:37:42.159Z,89.00
2023-04-26T06:40:11.083Z,88.60
2023-04-26T06:42:39.149Z,88.10
2023-04-26T06:45:25.629Z,87.80
2023-04-26T06:47:53.337Z,87.50
2023-04-26T06:50:23.869Z,87.40
2023-04-26T06:52:51.535Z,87.20
2023-04-26T06:55:19.028Z,87.00
2023-04-26T06:57:46.858Z,86.60
2023-04-26T07:00:16.098Z,85.90
2023-04-26T07:02:43.201Z,85.80
2023-04-26T07:05:10.384Z,85.70
2023-04-26T07:07:37.570Z,85.30
2023-04-26T07:10:04.750Z,85.20
2023-04-26T07:12:31.805Z,84.80
2023-04-26T07:14:58.670Z,83.80
2023-04-26T07:17:25.701Z,83.10
2023-04-26T07:19:54.404Z,83.00
2023-04-26T07:22:22.475Z,82.60
2023-04-26T07:24:49.723Z,82.50
2023-04-26T07:27:16.675Z,82.50
2023-04-26T07:29:43.819Z,81.80
2023-04-26T07:32:11.386Z,80.70
2023-04-26T07:34:38.580Z,79.00
2023-04-26T07:37:05.571Z,78.80
2023-04-26T07:39:32.773Z,78.40
2023-04-26T07:41:59.696Z,78.50
2023-04-26T07:44:26.706Z,78.20
2023-04-26T07:46:53.628Z,77.30
2023-04-26T07:49:20.543Z,77.10
2023-04-26T07:51:49.048Z,76.50
2023-04-26T07:54:15.951Z,75.80
2023-04-26T07:56:42.935Z,75.30
2023-04-26T07:59:09.814Z,75.00
2023-04-26T08:01:37.201Z,74.70
2023-04-26T08:04:05.026Z,74.20
2023-04-26T08:06:33.299Z,73.80
2023-04-26T08:09:00.469Z,73.90
2023-04-26T08:11:27.399Z,73.10
2023-04-26T08:13:54.613Z,72.50
2023-04-26T08:16:21.949Z,71.90
2023-04-26T08:18:48.867Z,71.90
2023-04-26T08:21:15.786Z,71.90
2023-04-26T08:23:42.730Z,70.50
2023-04-26T08:26:10.250Z,70.00
2023-04-26T08:28:38.024Z,70.10
2023-04-26T08:31:05.363Z,69.30
2023-04-26T08:33:32.344Z,68.20
2023-04-26T08:36:01.361Z,66.60
2023-04-26T08:38:29.625Z,65.70
2023-04-26T08:41:02.033Z,66.80
2023-04-26T08:43:30.591Z,66.90
2023-04-26T08:45:59.707Z,67.20
2023-04-26T08:48:31.618Z,66.90
2023-04-26T08:50:58.721Z,66.30
2023-04-26T08:53:26.127Z,65.60
2023-04-26T08:55:54.205Z,66.20
2023-04-26T08:58:22.395Z,65.30
2023-04-26T09:00:50.950Z,65.00
2023-04-26T09:03:18.395Z,64.90
2023-04-26T09:05:46.037Z,64.60
2023-04-26T09:08:20.170Z,64.00
2023-04-26T09:10:47.593Z,64.10
2023-04-26T09:13:14.585Z,63.40
2023-04-26T09:15:42.143Z,62.90
2023-04-26T09:18:35.340Z,62.60
2023-04-26T09:21:11.651Z,60.80
2023-04-26T09:23:58.065Z,61.50
2023-04-26T09:26:25.404Z,60.00
2023-04-26T09:29:13.860Z,59.90
2023-04-26T09:31:49.307Z,59.10
2023-04-26T09:34:16.860Z,59.10
2023-04-26T09:36:51.524Z,58.50
2023-04-26T09:39:38.137Z,58.50
2023-04-26T09:42:06.129Z,58.40
2023-04-26T09:44:33.555Z,58.60
2023-04-26T09:47:11.920Z,58.50
2023-04-26T09:49:51.634Z,58.00
2023-04-26T09:52:19.610Z,57.30
2023-04-26T09:54:53.963Z,57.10
2023-04-26T09:57:24.699Z,56.50
2023-04-26T09:59:55.392Z,55.40
2023-04-26T10:02:23.931Z,54.00
2023-04-26T10:04:53.466Z,55.50
2023-04-26T10:07:23.092Z,55.20
2023-04-26T10:09:50.817Z,55.20
2023-04-26T10:12:20.190Z,53.60
2023-04-26T10:14:48.334Z,53.80
2023-04-26T10:17:15.421Z,54.10
2023-04-26T10:19:46.728Z,54.50
2023-04-26T10:22:25.379Z,55.30
2023-04-26T10:24:54.307Z,55.10
2023-04-26T10:27:43.002Z,55.10
2023-04-26T10:30:22.008Z,54.90
2023-04-26T10:32:58.106Z,53.90
2023-04-26T10:35:27.219Z,54.00
2023-04-26T10:38:00.369Z,54.10
2023-04-26T10:40:27.469Z,54.30
2023-04-26T10:43:18.389Z,52.30
2023-04-26T10:45:48.860Z,52.80
2023-04-26T10:48:18.757Z,53.40
2023-04-26T10:51:11.969Z,52.70
2023-04-26T10:53:48.028Z,51.60
2023-04-26T10:56:24.226Z,50.20
2023-04-26T10:59:22.456Z,50.00
2023-04-26T11:01:55.609Z,50.60
2023-04-26T11:04:22.795Z,51.10
2023-04-26T11:06:51.316Z,51.70
2023-04-26T11:09:39.514Z,51.20
2023-04-26T11:12:13.967Z,50.60
2023-04-26T11:14:46.098Z,50.20
2023-04-26T11:17:13.348Z,50.10
2023-04-26T11:19:41.717Z,50.00
2023-04-26T11:22:09.355Z,48.80
2023-04-26T11:24:39.300Z,48.80
2023-04-26T11:27:12.463Z,47.30
2023-04-26T11:29:39.764Z,47.40
2023-04-26T11:32:08.244Z,47.90
2023-04-26T11:34:36.634Z,46.50
2023-04-26T11:37:07.175Z,45.90
2023-04-26T11:39:35.625Z,47.00
2023-04-26T11:42:10.460Z,47.20
2023-04-26T11:44:38.383Z,47.20
2023-04-26T11:47:06.677Z,44.60
2023-04-26T11:49:37.916Z,45.10
2023-04-26T11:52:06.603Z,46.30
2023-04-26T11:54:35.833Z,46.20
2023-04-26T11:57:16.178Z,46.90
2023-04-26T11:59:44.194Z,47.40
2023-04-26T12:02:11.837Z,44.80
2023-04-26T12:04:42.310Z,45.70
2023-04-26T12:07:09.840Z,46.20
2023-04-26T12:09:41.699Z,45.90
2023-04-26T12:12:09.083Z,43.60
2023-04-26T12:14:36.808Z,43.40
2023-04-26T12:17:08.280Z,44.30
2023-04-26T12:19:39.631Z,42.80
2023-04-26T12:22:08.330Z,42.60
2023-04-26T12:24:37.300Z,43.40
2023-04-26T12:27:07.292Z,43.40
2023-04-26T12:29:35.420Z,43.70
2023-04-26T12:32:02.782Z,44.40
2023-04-26T12:34:30.033Z,43.90
2023-04-26T12:36:57.028Z,44.30
2023-04-26T12:39:24.014Z,44.90
2023-04-26T12:41:51.104Z,45.00
2023-04-26T12:44:20.364Z,44.50
2023-04-26T12:46:49.030Z,43.90
2023-04-26T12:49:15.977Z,44.50
2023-04-26T12:51:42.912Z,44.80
2023-04-26T12:54:09.833Z,43.90
2023-04-26T12:56:40.780Z,42.40
2023-04-26T12:59:07.729Z,41.70
2023-04-26T13:01:34.832Z,42.20
2023-04-26T13:04:04.808Z,43.40
2023-04-26T13:06:32.480Z,44.00
2023-04-26T13:08:59.650Z,44.40
2023-04-26T13:11:26.705Z,45.70
2023-04-26T13:13:53.636Z,44.30
2023-04-26T13:16:20.736Z,43.70
2023-04-26T13:18:47.722Z,42.80
2023-04-26T13:21:14.632Z,43.60
2023-04-26T13:23:41.478Z,42.90
2023-04-26T13:26:08.494Z,43.50
2023-04-26T13:28:37.148Z,44.30
2023-04-26T13:31:04.399Z,43.90
2023-04-26T13:33:31.696Z,41.90
2023-04-26T13:35:58.639Z,42.40
2023-04-26T13:38:26.907Z,42.40
2023-04-26T13:40:54.060Z,43.50
2023-04-26T13:43:21.147Z,42.80
2023-04-26T13:45:48.135Z,42.90
2023-04-26T13:48:15.443Z,42.80
2023-04-26T13:50:42.756Z,42.70
2023-04-26T13:53:09.682Z,40.70
2023-04-26T13:55:37.066Z,41.30
2023-04-26T13:58:03.908Z,40.10
2023-04-26T14:00:30.977Z,38.90
2023-04-26T14:02:58.432Z,40.20
2023-04-26T14:05:25.572Z,41.40
2023-04-26T14:07:54.348Z,42.50
2023-04-26T14:10:22.087Z,41.50
2023-04-26T14:12:49.009Z,41.50
2023-04-26T14:15:16.058Z,40.90
2023-04-26T14:17:43.269Z,41.20
2023-04-26T14:20:10.797Z,39.90
2023-04-26T14:22:37.806Z,40.10
2023-04-26T14:25:05.368Z,38.90
2023-04-26T14:27:32.711Z,38.00
2023-04-26T14:29:59.646Z,38.70
2023-04-26T14:32:27.009Z,39.10
2023-04-26T14:34:54.053Z,39.60
2023-04-26T14:37:22.633Z,38.50
2023-04-26T14:39:50.731Z,38.10
2023-04-26T14:42:17.648Z,38.70
2023-04-26T14:44:46.432Z,39.70
2023-04-26T14:47:13.481Z,40.90
2023-04-26T14:49:40.352Z,40.80
2023-04-26T14:52:07.699Z,41.50
2023-04-26T14:54:41.734Z,42.90
2023-04-26T14:57:09.404Z,42.50
2023-04-26T14:59:36.829Z,41.90
2023-04-26T15:02:05.018Z,42.00
2023-04-26T15:04:32.350Z,42.70
2023-04-26T15:06:59.507Z,43.60
2023-04-26T15:09:28.350Z,42.90
2023-04-26T15:11:56.703Z,43.10
2023-04-26T15:14:23.726Z,43.60
2023-04-26T15:16:50.733Z,43.90
2023-04-26T15:19:18.036Z,44.10
2023-04-26T15:21:44.963Z,43.70
2023-04-26T15:24:11.858Z,44.10
2023-04-26T15:26:38.731Z,44.70
2023-04-26T15:29:05.767Z,44.80
2023-04-26T15:31:34.167Z,44.10
2023-04-26T15:34:02.502Z,43.20
2023-04-26T15:36:29.462Z,43.70
2023-04-26T15:38:56.599Z,43.10
2023-04-26T15:41:23.636Z,44.30
2023-04-26T15:43:55.360Z,44.90
2023-04-26T15:46:23.097Z,45.10
2023-04-26T15:48:50.855Z,45.40
2023-04-26T15:51:17.884Z,45.70
2023-04-26T15:53:45.107Z,46.40
2023-04-26T15:56:18.536Z,46.50
2023-04-26T15:58:48.622Z,46.20
2023-04-26T16:01:15.737Z,46.70
2023-04-26T16:03:46.420Z,46.30
2023-04-26T16:06:14.720Z,46.50
2023-04-26T16:08:41.597Z,46.20
2023-04-26T16:11:08.603Z,45.70
2023-04-26T16:13:35.641Z,45.80
2023-04-26T16:16:06.282Z,45.60
2023-04-26T16:18:34.110Z,45.70
2023-04-26T16:21:05.036Z,46.20
2023-04-26T16:23:32.365Z,46.50
2023-04-26T16:25:59.365Z,47.40
2023-04-26T16:28:26.488Z,47.20
2023-04-26T16:30:53.783Z,48.00
2023-04-26T16:33:22.885Z,48.90
2023-04-26T16:35:55.032Z,49.90
2023-04-26T16:38:24.995Z,49.50
2023-04-26T16:40:59.060Z,49.60
2023-04-26T16:43:27.272Z,50.20
2023-04-26T16:46:08.072Z,50.70
2023-04-26T16:48:37.234Z,50.60
2023-04-26T16:51:07.361Z,50.20
2023-04-26T16:53:34.645Z,50.50
2023-04-26T16:56:01.627Z,50.60
2023-04-26T16:58:28.682Z,50.80
2023-04-26T17:00:56.308Z,51.10
2023-04-26T17:03:24.814Z,50.90
2023-04-26T17:05:52.002Z,51.00
2023-04-26T17:08:19.769Z,51.50
2023-04-26T17:10:47.335Z,51.20
2023-04-26T17:13:14.971Z,51.30
2023-04-26T17:15:42.562Z,51.50
2023-04-26T17:18:09.949Z,51.90
2023-04-26T17:20:37.037Z,52.40
2023-04-26T17:23:04.392Z,53.10
2023-04-26T17:25:31.647Z,53.20
2023-04-26T17:27:59.869Z,53.70
2023-04-26T17:30:27.037Z,53.90
2023-04-26T17:32:54.094Z,54.00
2023-04-26T17:35:21.178Z,54.30
2023-04-26T17:37:50.258Z,54.30
2023-04-26T17:40:18.386Z,54.60
2023-04-26T17:42:46.122Z,55.20
2023-04-26T17:45:14.405Z,55.90
2023-04-26T17:47:42.782Z,56.50
2023-04-26T17:50:10.061Z,56.90
2023-04-26T17:52:37.818Z,57.30
2023-04-26T17:55:06.056Z,57.40
2023-04-26T17:57:33.033Z,57.50
2023-04-26T17:59:59.970Z,57.80
2023-04-26T18:02:27.101Z,58.00
2023-04-26T18:04:55.122Z,58.30
2023-04-26T18:07:22.449Z,58.40
2023-04-26T18:09:49.373Z,58.80
2023-04-26T18:12:16.384Z,59.10
2023-04-26T18:14:46.217Z,59.10
2023-04-26T18:17:13.922Z,59.00
2023-04-26T18:19:41.923Z,59.10
2023-04-26T18:22:09.462Z,59.20
2023-04-26T18:24:36.449Z,59.50
2023-04-26T18:27:03.739Z,59.90
2023-04-26T18:29:31.182Z,60.20
2023-04-26T18:31:58.231Z,60.40
2023-04-26T18:34:25.184Z,60.70
2023-04-26T18:36:52.199Z,60.90
2023-04-26T18:39:19.200Z,61.20
2023-04-26T18:41:46.290Z,61.30
2023-04-26T18:44:13.429Z,61.70
2023-04-26T18:46:41.572Z,61.90
2023-04-26T18:49:09.310Z,62.00
2023-04-26T18:51:36.296Z,62.30
2023-04-26T18:54:03.206Z,62.50
2023-04-26T18:56:30.499Z,62.80
2023-04-26T18:58:57.963Z,63.10
2023-04-26T19:01:25.003Z,63.30
2023-04-26T19:03:52.145Z,63.70
2023-04-26T19:06:19.476Z,64.10
2023-04-26T19:08:46.717Z,64.30
2023-04-26T19:11:13.812Z,64.50
2023-04-26T19:13:41.480Z,64.70
2023-04-26T19:16:09.295Z,65.10
2023-04-26T19:18:37.166Z,65.40
2023-04-26T19:21:05.358Z,65.70
2023-04-26T19:23:32.483Z,65.80
2023-04-26T19:26:12.346Z,65.70
2023-04-26T19:28:39.338Z,65.70
2023-04-26T19:31:06.766Z,65.60
2023-04-26T19:33:33.869Z,65.60
2023-04-26T19:36:00.889Z,65.50
2023-04-26T19:38:28.562Z,65.40
2023-04-26T19:40:55.488Z,65.50
2023-04-26T19:43:22.546Z,65.60
2023-04-26T19:45:49.423Z,65.60
2023-04-26T19:48:16.464Z,65.70
2023-04-26T19:50:46.982Z,65.70
2023-04-26T19:53:15.660Z,65.90
2023-04-26T19:55:42.837Z,65.90
2023-04-26T19:58:13.097Z,65.90
2023-04-26T20:00:40.635Z,66.10
2023-04-26T20:03:07.998Z,66.20
2023-04-26T20:05:35.158Z,66.50
2023-04-26T20:08:02.326Z,66.80
2023-04-26T20:10:34.367Z,67.20
2023-04-26T20:13:01.553Z,67.60
2023-04-26T20:15:29.834Z,67.80
2023-04-26T20:17:58.350Z,68.20
2023-04-26T20:20:25.539Z,68.40
2023-04-26T20:22:52.518Z,68.80
2023-04-26T20:25:19.965Z,69.10
2023-04-26T20:27:47.391Z,69.40
2023-04-26T20:30:15.197Z,69.60
2023-04-26T20:32:42.742Z,70.00
2023-04-26T20:35:10.054Z,70.50
2023-04-26T20:37:37.084Z,70.70
2023-04-26T20:40:05.321Z,70.90
2023-04-26T20:42:32.305Z,71.00
2023-04-26T20:45:01.778Z,71.10
2023-04-26T20:47:29.681Z,71.30
2023-04-26T20:49:56.717Z,72.00
2023-04-26T20:52:23.704Z,72.00
2023-04-26T20:54:50.670Z,72.30
2023-04-26T20:57:17.612Z,72.70
2023-04-26T20:59:44.572Z,73.00
2023-04-26T21:02:11.694Z,73.10
2023-04-26T21:04:41.867Z,73.20
2023-04-26T21:07:09.921Z,73.50
2023-04-26T21:09:37.060Z,73.70
2023-04-26T21:12:04.554Z,73.60
2023-04-26T21:14:31.750Z,73.60
2023-04-26T21:16:58.883Z,73.60
2023-04-26T21:19:25.883Z,73.70
2023-04-26T21:21:52.934Z,73.90
2023-04-26T21:24:19.818Z,74.10
2023-04-26T21:26:46.841Z,74.10
2023-04-26T21:29:13.815Z,74.40
2023-04-26T21:31:41.193Z,74.60
2023-04-26T21:34:08.106Z,74.90
2023-04-26T21:36:35.062Z,75.20
2023-04-26T21:39:02.093Z,75.50
2023-04-26T21:41:29.188Z,75.70
2023-04-26T21:43:57.157Z,75.90
2023-04-26T21:46:24.192Z,76.20
2023-04-26T21:48:51.128Z,76.40
2023-04-26T21:51:19.956Z,76.50
2023-04-26T21:53:46.926Z,76.60
2023-04-26T21:56:14.858Z,76.80
2023-04-26T21:58:42.544Z,77.10
2023-04-26T22:01:11.851Z,77.40
2023-04-26T22:03:39.016Z,77.30
2023-04-26T22:06:07.294Z,77.70
2023-04-26T22:08:34.878Z,78.10
2023-04-26T22:11:02.604Z,77.50
2023-04-26T22:13:30.306Z,77.60
2023-04-26T22:15:57.441Z,77.60
2023-04-26T22:18:25.906Z,77.80
2023-04-26T22:20:53.694Z,78.10
2023-04-26T22:23:20.941Z,78.30
2023-04-26T22:25:47.877Z,78.40
2023-04-26T22:28:15.189Z,78.50
2023-04-26T22:30:42.169Z,78.60
2023-04-26T22:33:10.996Z,78.70
2023-04-26T22:35:38.032Z,78.80
2023-04-26T22:38:04.938Z,78.90
2023-04-26T22:40:32.679Z,79.00
2023-04-26T22:42:59.658Z,79.10
2023-04-26T22:45:27.053Z,79.10
2023-04-26T22:47:54.036Z,79.20
2023-04-26T22:50:21.609Z,79.70
2023-04-26T22:52:49.845Z,79.90
2023-04-26T22:55:17.382Z,80.20
2023-04-26T22:57:44.975Z,80.60
2023-04-26T23:00:12.873Z,80.80
2023-04-26T23:02:39.986Z,80.80
2023-04-26T23:05:09.883Z,81.00
2023-04-26T23:07:40.490Z,81.20
2023-04-26T23:10:08.248Z,81.60
2023-04-26T23:12:36.159Z,82.00
2023-04-26T23:15:05.181Z,82.60
2023-04-26T23:17:34.081Z,82.90
2023-04-26T23:20:01.414Z,83.10
2023-04-26T23:22:28.474Z,83.10
2023-04-26T23:24:55.516Z,83.30
2023-04-26T23:27:24.371Z,83.40
2023-04-26T23:29:51.775Z,83.50
2023-04-26T23:32:18.675Z,83.60
2023-04-26T23:34:45.649Z,83.70
2023-04-26T23:37:12.740Z,83.80
2023-04-26T23:39:39.598Z,84.00
2023-04-26T23:42:06.647Z,84.10
2023-04-26T23:44:33.694Z,84.20
2023-04-26T23:47:00.606Z,84.30
2023-04-26T23:49:27.720Z,84.40
2023-04-26T23:51:54.652Z,84.40
2023-04-26T23:54:21.636Z,84.30
2023-04-26T23:56:48.489Z,84.30
2023-04-26T23:59:16.556Z,84.20
